Time;durP1;ratioP1;P1;durP2;ratioP2;P2;SDS_P1;SDS_P2;PMS_P1;PMS_P2;Temp;Humidity;BMP_temperature;BMP_pressure;BME280_temperature;BME280_humidity;BME280_pressure;Samples;Min_cycle;Max_cycle;Signal;HPM_P1;HPM_P2
2023/10/13 00:01:54;;;;;;;32.67;15.47;;;13.50;99.90;;;;;;4402741;28;658662;-68
2023/10/13 00:04:42;;;;;;;33.43;15.30;;;13.50;99.90;;;;;;4405500;28;658852;-68
2023/10/13 00:07:29;;;;;;;31.70;14.27;;;13.50;99.90;;;;;;4405594;28;659690;-68
2023/10/13 00:10:18;;;;;;;29.40;13.00;;;13.50;99.90;;;;;;4422399;28;658105;-68
2023/10/13 00:13:11;;;;;;;23.13;12.67;;;13.50;99.90;;;;;;4401671;28;659242;-68
2023/10/13 00:15:59;;;;;;;32.30;13.37;;;13.70;99.90;;;;;;4377936;28;659398;-68
2023/10/13 00:18:48;;;;;;;24.00;14.10;;;13.70;99.90;;;;;;4426215;28;658424;-68
2023/10/13 00:21:35;;;;;;;35.53;13.07;;;13.60;99.90;;;;;;4404120;28;660109;-68
2023/10/13 00:24:29;;;;;;;31.97;12.80;;;13.50;99.90;;;;;;4402060;28;658763;-68
2023/10/13 00:27:30;;;;;;;33.30;13.43;;;13.50;99.90;;;;;;4404143;28;659733;-68
2023/10/13 00:30:22;;;;;;;39.80;13.50;;;13.40;99.90;;;;;;4399853;28;659083;-68
2023/10/13 00:33:09;;;;;;;29.33;12.77;;;13.40;99.90;;;;;;4407041;28;659762;-68
2023/10/13 00:35:58;;;;;;;20.33;11.57;;;13.30;99.90;;;;;;4426929;28;658925;-68
2023/10/13 00:38:48;;;;;;;32.60;12.93;;;13.20;99.90;;;;;;4403361;28;659341;-68
2023/10/13 00:41:50;;;;;;;26.93;12.53;;;13.20;99.90;;;;;;4401071;28;659055;-68
2023/10/13 00:44:42;;;;;;;31.27;12.85;;;13.20;99.90;;;;;;4405279;28;658842;-68
2023/10/13 00:47:49;;;;;;;26.40;11.90;;;13.10;99.90;;;;;;4408915;28;658576;-68
2023/10/13 00:50:36;;;;;;;25.67;11.33;;;13.00;99.90;;;;;;4399872;28;658557;-68
2023/10/13 00:53:23;;;;;;;24.07;11.60;;;12.90;99.90;;;;;;4404656;28;659060;-68
2023/10/13 00:56:19;;;;;;;28.47;9.97;;;12.90;99.90;;;;;;4429038;28;658878;-68
2023/10/13 00:59:05;;;;;;;379.60;15.60;;;13.00;99.90;;;;;;4405005;28;658322;-68
2023/10/13 01:01:55;;;;;;;35.17;11.30;;;12.90;99.90;;;;;;4405682;28;660042;-68
2023/10/13 01:04:46;;;;;;;23.97;10.80;;;12.70;99.90;;;;;;4413098;28;658410;-68
2023/10/13 01:07:35;;;;;;;30.93;10.30;;;12.60;99.90;;;;;;4405970;28;658829;-68
2023/10/13 01:10:27;;;;;;;23.13;9.80;;;12.50;99.90;;;;;;4408140;28;658317;-68
2023/10/13 01:13:14;;;;;;;33.33;10.50;;;12.50;99.90;;;;;;4405093;28;657576;-68
2023/10/13 01:16:02;;;;;;;18.20;9.47;;;12.40;99.90;;;;;;4425478;28;658727;-68
2023/10/13 01:18:49;;;;;;;17.93;8.77;;;12.30;99.90;;;;;;4403268;28;657980;-68
2023/10/13 01:21:40;;;;;;;24.40;9.17;;;12.30;99.90;;;;;;4428045;28;658018;-68
2023/10/13 01:24:34;;;;;;;32.90;9.03;;;12.20;99.90;;;;;;4390211;28;658014;-68
2023/10/13 01:27:24;;;;;;;16.60;8.37;;;12.20;99.90;;;;;;4404527;28;658350;-68
2023/10/13 01:30:22;;;;;;;22.83;9.20;;;12.20;99.90;;;;;;4404582;28;658662;-68
2023/10/13 01:33:10;;;;;;;20.88;9.27;;;12.00;99.90;;;;;;4380766;28;658227;-68
2023/10/13 01:35:58;;;;;;;23.93;9.00;;;12.00;99.90;;;;;;4409691;28;657542;-68
2023/10/13 01:38:46;;;;;;;19.33;9.03;;;11.90;99.90;;;;;;4427256;28;659002;-68
2023/10/13 01:41:38;;;;;;;26.20;9.70;;;11.90;99.90;;;;;;4408015;28;657708;-68
2023/10/13 01:44:26;;;;;;;22.73;9.77;;;11.90;99.90;;;;;;4408085;28;658064;-68
2023/10/13 01:47:15;;;;;;;22.33;11.87;;;11.80;99.90;;;;;;4408612;28;658199;-68
2023/10/13 01:50:12;;;;;;;27.20;12.05;;;11.80;99.90;;;;;;4407471;28;658230;-68
2023/10/13 01:53:11;;;;;;;35.93;14.33;;;11.70;99.90;;;;;;4380000;28;659884;-68
2023/10/13 01:55:59;;;;;;;319.70;16.90;;;11.70;99.90;;;;;;4403221;28;659157;-68
2023/10/13 01:58:47;;;;;;;21.03;9.80;;;11.60;99.90;;;;;;4422658;28;660322;-68
2023/10/13 02:01:35;;;;;;;23.23;11.00;;;11.50;99.90;;;;;;4404668;28;658559;-68
2023/10/13 02:04:22;;;;;;;27.50;12.57;;;11.50;99.90;;;;;;4414499;28;658624;-68
2023/10/13 02:07:14;;;;;;;21.40;11.70;;;11.50;99.90;;;;;;4427405;28;658174;-68
2023/10/13 02:10:04;;;;;;;27.10;11.53;;;11.40;99.90;;;;;;4402140;28;658596;-68
2023/10/13 02:12:55;;;;;;;29.63;12.77;;;11.30;99.90;;;;;;4399377;28;659338;-68
2023/10/13 02:15:44;;;;;;;30.07;12.53;;;11.30;99.90;;;;;;4386009;28;659200;-68
2023/10/13 02:18:34;;;;;;;24.57;12.13;;;11.30;99.90;;;;;;4424291;28;658627;-68
2023/10/13 02:21:20;;;;;;;32.90;12.80;;;11.30;99.90;;;;;;4401598;28;659312;-68
2023/10/13 02:24:13;;;;;;;31.57;13.50;;;11.20;99.90;;;;;;4408000;28;658760;-68
2023/10/13 02:27:10;;;;;;;25.53;11.57;;;11.30;99.90;;;;;;4401565;28;659046;-68
2023/10/13 02:30:00;;;;;;;27.97;9.23;;;11.30;99.90;;;;;;4377656;28;660059;-68
2023/10/13 02:32:48;;;;;;;20.03;9.60;;;11.10;99.90;;;;;;4423327;28;657579;-68
2023/10/13 02:35:41;;;;;;;19.90;9.40;;;11.20;99.90;;;;;;4426590;28;658090;-69
2023/10/13 02:38:33;;;;;;;27.10;13.10;;;11.30;99.90;;;;;;4382483;28;657694;-68
2023/10/13 02:41:25;;;;;;;20.40;10.27;;;11.20;99.90;;;;;;4401248;28;659084;-68
2023/10/13 02:44:20;;;;;;;21.60;10.40;;;11.30;99.90;;;;;;4384712;28;659117;-68
2023/10/13 02:47:14;;;;;;;17.20;9.17;;;11.30;99.90;;;;;;4389168;28;658582;-68
2023/10/13 02:50:11;;;;;;;24.40;10.43;;;11.20;99.90;;;;;;4398884;28;658835;-68
2023/10/13 02:52:58;;;;;;;28.90;11.10;;;11.20;99.90;;;;;;4406719;28;658418;-68
2023/10/13 02:55:53;;;;;;;26.83;11.20;;;11.20;99.90;;;;;;4421981;28;659216;-68
2023/10/13 02:58:43;;;;;;;24.23;12.10;;;11.20;99.90;;;;;;4374442;28;658737;-68
2023/10/13 03:01:33;;;;;;;28.83;12.27;;;11.10;99.90;;;;;;4401650;28;659742;-68
2023/10/13 03:04:25;;;;;;;36.13;14.20;;;11.10;99.90;;;;;;4400344;28;659021;-68
2023/10/13 03:07:15;;;;;;;21.35;11.65;;;11.10;99.90;;;;;;4381822;28;659152;-68
2023/10/13 03:10:09;;;;;;;31.90;12.32;;;11.10;99.90;;;;;;4401105;28;659442;-68
2023/10/13 03:12:57;;;;;;;28.30;11.67;;;11.10;99.90;;;;;;4400631;28;658806;-68
2023/10/13 03:15:47;;;;;;;24.77;12.50;;;11.00;99.90;;;;;;4403858;28;659772;-68
2023/10/13 03:18:36;;;;;;;34.30;12.07;;;11.00;99.90;;;;;;4395150;28;659162;-68
2023/10/13 03:21:29;;;;;;;23.43;12.03;;;11.00;99.90;;;;;;4404737;28;658901;-68
2023/10/13 03:24:22;;;;;;;423.83;18.70;;;11.00;99.90;;;;;;4402876;28;658683;-68
2023/10/13 03:27:09;;;;;;;30.13;12.03;;;11.00;99.90;;;;;;4376551;28;660200;-68
2023/10/13 03:30:00;;;;;;;29.30;12.47;;;10.90;99.90;;;;;;4422588;28;659008;-68
2023/10/13 03:32:48;;;;;;;32.00;12.37;;;10.90;99.90;;;;;;4380381;28;658992;-68
2023/10/13 03:35:40;;;;;;;32.13;11.93;;;10.90;99.90;;;;;;4427340;28;659311;-68
2023/10/13 03:38:27;;;;;;;24.53;12.70;;;11.00;99.90;;;;;;4381177;28;659091;-68
2023/10/13 03:41:24;;;;;;;32.47;12.90;;;11.00;99.90;;;;;;4428078;28;659825;-68
2023/10/13 03:44:17;;;;;;;26.57;12.63;;;10.90;99.90;;;;;;4401776;28;658349;-68
2023/10/13 03:47:18;;;;;;;26.63;11.83;;;11.00;99.90;;;;;;4399469;28;659370;-68
2023/10/13 03:50:15;;;;;;;25.60;12.10;;;11.00;99.90;;;;;;4381680;28;658629;-68
2023/10/13 03:53:05;;;;;;;24.63;11.43;;;11.00;99.90;;;;;;4406477;28;658729;-68
2023/10/13 03:56:07;;;;;;;28.50;11.50;;;11.10;99.90;;;;;;4406683;28;658426;-68
2023/10/13 03:58:59;;;;;;;22.10;11.00;;;11.10;99.90;;;;;;4380728;28;659762;-68
2023/10/13 04:01:53;;;;;;;27.87;11.53;;;11.20;99.90;;;;;;4401188;28;659576;-68
2023/10/13 04:04:48;;;;;;;30.10;12.33;;;11.20;99.90;;;;;;4405035;28;659344;-68
2023/10/13 04:08:44;;;;;;;28.70;12.27;;;11.10;99.90;;;;;;4403710;28;659001;-68
2023/10/13 04:17:11;;;;;;;25.57;12.00;;;11.20;99.90;;;;;;4381375;28;658384;-68
2023/10/13 04:20:27;;;;;;;28.83;11.10;;;11.20;99.90;;;;;;4381759;28;659157;-68
2023/10/13 04:23:25;;;;;;;26.23;11.13;;;11.20;99.90;;;;;;4405075;28;659463;-68
2023/10/13 04:26:21;;;;;;;32.30;11.30;;;11.20;99.90;;;;;;4385378;28;659078;-68
2023/10/13 04:29:27;;;;;;;28.70;11.57;;;11.30;99.90;;;;;;4407574;28;660718;-68
2023/10/13 04:32:28;;;;;;;26.53;11.30;;;11.30;99.90;;;;;;4380576;28;659404;-68
2023/10/13 04:35:19;;;;;;;23.33;10.83;;;11.30;99.90;;;;;;4379900;28;658693;-68
2023/10/13 04:38:19;;;;;;;25.20;11.73;;;11.40;99.90;;;;;;4404145;28;659495;-68
2023/10/13 04:41:22;;;;;;;23.50;11.70;;;11.40;99.90;;;;;;4402667;28;659211;-68
2023/10/13 04:47:17;;;;;;;31.87;12.33;;;11.60;99.90;;;;;;4403338;28;659444;-68
2023/10/13 04:50:21;;;;;;;23.57;11.40;;;11.60;99.90;;;;;;4381343;28;658964;-68
2023/10/13 04:53:27;;;;;;;22.00;11.23;;;11.60;99.90;;;;;;4378507;28;658905;-69
2023/10/13 05:49:09;;;;;;;34.13;14.93;;;12.60;99.90;;;;;;4403877;28;659496;-68
2023/10/13 05:52:07;;;;;;;21.77;12.60;;;12.60;99.90;;;;;;4405404;28;658364;-68
2023/10/13 06:28:56;;;;;;;28.50;12.30;;;13.30;99.90;;;;;;4396962;28;658412;-68
2023/10/13 06:31:45;;;;;;;33.83;12.97;;;13.40;99.90;;;;;;4403736;28;658730;-68
2023/10/13 06:34:44;;;;;;;30.77;13.43;;;13.40;99.90;;;;;;4405656;28;658713;-69
2023/10/13 06:37:32;;;;;;;31.10;14.13;;;13.50;99.90;;;;;;4396432;28;659588;-68
2023/10/13 06:40:32;;;;;;;31.23;13.27;;;13.60;99.90;;;;;;4400621;28;660167;-68
2023/10/13 06:43:21;;;;;;;30.97;12.80;;;13.80;99.90;;;;;;4378710;28;659530;-69
2023/10/13 06:46:14;;;;;;;25.50;13.93;;;14.00;99.90;;;;;;4403837;28;658945;-69
2023/10/13 06:49:02;;;;;;;38.27;15.43;;;14.10;99.90;;;;;;4400203;28;658152;-69
2023/10/13 06:51:49;;;;;;;27.33;14.50;;;14.10;99.90;;;;;;4404443;28;658767;-68
2023/10/13 06:54:38;;;;;;;31.63;14.97;;;14.20;99.90;;;;;;4425352;28;658791;-68
2023/10/13 06:57:33;;;;;;;31.60;15.23;;;14.40;99.90;;;;;;4401588;28;659548;-68
2023/10/13 07:00:28;;;;;;;33.43;15.37;;;14.50;99.90;;;;;;4396996;28;659207;-68
2023/10/13 07:03:18;;;;;;;28.77;15.43;;;14.60;99.90;;;;;;4400766;28;659451;-69
2023/10/13 07:06:11;;;;;;;30.20;15.30;;;14.70;99.90;;;;;;4400247;28;659826;-68
2023/10/13 07:09:03;;;;;;;28.77;14.57;;;14.80;99.90;;;;;;4373701;28;659144;-68
2023/10/13 07:11:52;;;;;;;30.10;13.63;;;14.90;99.90;;;;;;4397868;28;660716;-68
2023/10/13 07:14:41;;;;;;;25.33;13.60;;;14.90;99.90;;;;;;4403098;28;658976;-68
2023/10/13 07:17:33;;;;;;;27.63;12.90;;;15.00;99.90;;;;;;4403620;28;658503;-68
2023/10/13 07:20:33;;;;;;;22.30;12.47;;;15.10;99.90;;;;;;4402138;28;659001;-68
2023/10/13 07:23:20;;;;;;;24.07;12.27;;;15.00;99.90;;;;;;4379879;28;658785;-68
2023/10/13 07:26:08;;;;;;;20.60;11.70;;;15.20;99.90;;;;;;4412481;28;658406;-68
2023/10/13 07:28:55;;;;;;;26.20;13.07;;;15.20;99.90;;;;;;4432976;28;658842;-68
2023/10/13 07:31:45;;;;;;;25.10;11.87;;;15.30;99.90;;;;;;4405065;28;659300;-68
2023/10/13 07:34:33;;;;;;;27.63;11.70;;;15.40;99.90;;;;;;4401655;28;658487;-68
2023/10/13 07:37:20;;;;;;;22.03;11.50;;;15.50;99.90;;;;;;4422025;28;660290;-68
2023/10/13 07:40:39;;;;;;;21.97;11.33;;;15.60;99.90;;;;;;4388564;28;659598;-68
2023/10/13 07:43:27;;;;;;;26.47;10.90;;;15.80;99.90;;;;;;4398397;28;660002;-68
2023/10/13 07:46:14;;;;;;;26.63;10.77;;;16.00;99.90;;;;;;4400546;28;659938;-68
2023/10/13 07:49:10;;;;;;;18.42;9.65;;;16.10;99.90;;;;;;4422273;28;658899;-68
2023/10/13 07:52:00;;;;;;;22.03;9.63;;;16.10;99.90;;;;;;4403152;28;657505;-67
2023/10/13 07:54:55;;;;;;;21.37;9.47;;;16.20;99.90;;;;;;4405699;28;657994;-68
2023/10/13 07:57:54;;;;;;;21.67;10.00;;;16.20;99.90;;;;;;4380009;28;657985;-67
2023/10/13 08:00:53;;;;;;;14.73;7.77;;;16.30;99.90;;;;;;4400393;28;659212;-67
2023/10/13 08:03:47;;;;;;;20.03;9.17;;;16.20;99.90;;;;;;4397629;28;658430;-67
2023/10/13 08:06:36;;;;;;;20.67;9.90;;;16.10;99.90;;;;;;4399096;28;657449;-67
2023/10/13 08:09:40;;;;;;;21.50;10.40;;;16.20;99.90;;;;;;4404032;28;658024;-67
2023/10/13 08:12:27;;;;;;;24.70;10.10;;;16.10;99.90;;;;;;4387705;28;658768;-67
2023/10/13 08:15:20;;;;;;;25.83;10.87;;;16.10;99.90;;;;;;4421975;28;659520;-67
2023/10/13 08:18:17;;;;;;;20.33;9.60;;;16.00;99.90;;;;;;4379479;28;658865;-67
2023/10/13 08:21:05;;;;;;;21.13;9.83;;;16.10;99.90;;;;;;4371036;28;658414;-67
2023/10/13 08:24:06;;;;;;;25.30;10.53;;;16.30;99.90;;;;;;4406765;28;657700;-67
2023/10/13 08:33:16;;;;;;;19.67;11.33;;;16.40;99.90;;;;;;4373089;28;659453;-67
2023/10/13 08:36:27;;;;;;;20.67;11.93;;;16.30;99.90;;;;;;4376755;28;659226;-67
2023/10/13 08:39:58;;;;;;;21.00;10.70;;;16.30;99.90;;;;;;4407447;28;659584;-66
2023/10/13 08:42:52;;;;;;;22.93;12.10;;;16.50;99.90;;;;;;4402139;28;659078;-67
2023/10/13 08:45:59;;;;;;;24.67;12.33;;;16.60;99.90;;;;;;4389538;28;658615;-67
2023/10/13 08:48:47;;;;;;;27.17;12.23;;;16.60;99.90;;;;;;4401579;28;659500;-67
2023/10/13 08:51:48;;;;;;;26.60;12.83;;;16.60;99.90;;;;;;4402016;28;660355;-67
2023/10/13 08:54:46;;;;;;;22.63;13.57;;;16.80;99.90;;;;;;4404200;28;658638;-66
2023/10/13 08:57:35;;;;;;;26.47;13.43;;;16.30;99.90;;;;;;4383749;28;658569;-67
2023/10/13 09:00:55;;;;;;;31.33;13.80;;;16.40;99.90;;;;;;4420024;28;658859;-67
2023/10/13 09:03:39;;;;;;;27.10;13.20;;;16.60;99.90;;;;;;4399520;28;659206;-67
2023/10/13 09:06:27;;;;;;;25.43;13.20;;;17.30;99.90;;;;;;4403441;28;658808;-67
2023/10/13 09:09:26;;;;;;;31.67;12.23;;;17.70;99.90;;;;;;4405664;28;659220;-67
2023/10/13 09:12:18;;;;;;;18.25;9.40;;;17.80;99.90;;;;;;4379310;28;660147;-66
2023/10/13 09:15:17;;;;;;;25.00;12.20;;;18.00;99.90;;;;;;4397352;28;658748;-67
2023/10/13 09:18:12;;;;;;;13.07;8.07;;;17.60;99.90;;;;;;4401047;28;659310;-66
2023/10/13 09:21:25;;;;;;;20.77;9.90;;;17.80;99.90;;;;;;4378687;28;658279;-66
2023/10/13 09:24:29;;;;;;;17.07;8.73;;;18.20;99.90;;;;;;4380668;28;658294;-67
2023/10/13 09:27:18;;;;;;;21.37;9.40;;;18.80;99.90;;;;;;4399724;28;658070;-67
2023/10/13 09:30:09;;;;;;;19.20;8.83;;;18.80;99.90;;;;;;4400406;28;658713;-66
2023/10/13 09:33:04;;;;;;;19.13;8.63;;;19.00;99.90;;;;;;4396338;28;657728;-66
2023/10/13 09:35:51;;;;;;;17.97;8.30;;;18.90;99.90;;;;;;4407837;28;657993;-66
2023/10/13 09:38:40;;;;;;;20.60;8.77;;;18.50;99.90;;;;;;4408463;28;657728;-66
2023/10/13 09:41:32;;;;;;;22.40;9.03;;;18.50;99.90;;;;;;4417508;28;657538;-67
2023/10/13 09:44:21;;;;;;;16.10;8.10;;;18.50;99.90;;;;;;4408205;28;658444;-66
2023/10/13 09:47:17;;;;;;;16.83;7.50;;;18.70;99.90;;;;;;4406335;28;657520;-67
2023/10/13 09:50:13;;;;;;;18.83;8.50;;;18.90;99.90;;;;;;4407009;28;658551;-66
2023/10/13 09:53:01;;;;;;;20.97;8.40;;;19.10;99.90;;;;;;4403772;28;657534;-66
2023/10/13 09:55:49;;;;;;;15.37;7.07;;;19.10;99.90;;;;;;4405296;28;657935;-66
2023/10/13 09:58:36;;;;;;;17.60;7.47;;;19.60;99.90;;;;;;4426170;28;657657;-66
2023/10/13 10:01:32;;;;;;;13.50;5.90;;;19.30;99.90;;;;;;4408667;28;657815;-66
2023/10/13 10:04:23;;;;;;;17.73;6.83;;;19.60;99.90;;;;;;4386382;28;658521;-66
2023/10/13 10:07:09;;;;;;;25.33;6.63;;;19.50;99.90;;;;;;4401713;28;659348;-66
2023/10/13 10:09:58;;;;;;;6.97;3.97;;;20.20;99.90;;;;;;4422539;28;658161;-66
2023/10/13 10:12:48;;;;;;;9.57;4.40;;;20.50;99.90;;;;;;4402608;28;656790;-66
2023/10/13 10:15:43;;;;;;;12.97;5.90;;;20.00;99.90;;;;;;4404526;28;656758;-65
2023/10/13 10:18:32;;;;;;;17.90;6.43;;;20.40;99.90;;;;;;4401919;28;658182;-65
2023/10/13 10:21:22;;;;;;;14.47;6.50;;;19.90;99.90;;;;;;4405790;28;659841;-65
2023/10/13 10:24:23;;;;;;;13.13;6.37;;;20.50;99.90;;;;;;4402602;28;658652;-66
2023/10/13 10:27:14;;;;;;;13.40;5.80;;;20.30;99.90;;;;;;4398876;28;657840;-65
2023/10/13 10:30:03;;;;;;;16.67;6.00;;;21.10;99.90;;;;;;4401733;28;657383;-65
2023/10/13 10:32:59;;;;;;;10.60;5.23;;;21.30;99.90;;;;;;4401979;28;658512;-65
2023/10/13 10:35:47;;;;;;;13.00;6.20;;;21.50;99.90;;;;;;4398933;28;658640;-66
2023/10/13 10:38:38;;;;;;;12.53;5.03;;;21.80;99.90;;;;;;4410579;28;658318;-65
2023/10/13 10:41:39;;;;;;;14.18;5.60;;;21.20;99.90;;;;;;4397910;28;658225;-65
2023/10/13 10:44:34;;;;;;;15.00;4.50;;;21.20;99.90;;;;;;4405206;28;657806;-65
2023/10/13 10:47:30;;;;;;;17.30;4.87;;;21.00;99.90;;;;;;4403341;28;658466;-65
2023/10/13 10:50:27;;;;;;;11.57;5.03;;;20.40;99.90;;;;;;4383664;28;657618;-65
2023/10/13 10:53:16;;;;;;;12.13;4.50;;;20.10;99.90;;;;;;4379326;28;658198;-65
2023/10/13 10:56:08;;;;;;;11.17;4.97;;;19.70;99.90;;;;;;4405538;28;657842;-65
2023/10/13 10:58:56;;;;;;;15.63;5.13;;;19.10;99.90;;;;;;4399750;28;657774;-65
2023/10/13 11:01:47;;;;;;;9.40;5.23;;;19.80;99.90;;;;;;4400992;28;657788;-65
2023/10/13 11:04:35;;;;;;;12.13;4.72;;;20.10;99.90;;;;;;4407561;28;657177;-65
2023/10/13 11:07:23;;;;;;;12.10;5.70;;;20.10;99.90;;;;;;4420039;28;657960;-65
2023/10/13 11:10:20;;;;;;;11.63;4.70;;;20.40;99.90;;;;;;4424261;28;658723;-65
2023/10/13 11:13:13;;;;;;;15.03;5.00;;;20.40;99.90;;;;;;4391148;28;657898;-65
2023/10/13 11:16:01;;;;;;;9.10;4.53;;;20.30;99.90;;;;;;4403305;28;658227;-65
2023/10/13 11:18:48;;;;;;;6.13;3.33;;;20.20;99.90;;;;;;4401321;28;656796;-65
2023/10/13 11:21:37;;;;;;;14.20;4.40;;;20.50;99.90;;;;;;4425450;28;657510;-65
2023/10/13 11:24:24;;;;;;;12.50;4.20;;;20.70;99.90;;;;;;4397113;28;658975;-65
2023/10/13 11:27:21;;;;;;;13.67;4.17;;;20.90;99.90;;;;;;4418481;28;657514;-65
2023/10/13 11:30:13;;;;;;;16.23;4.43;;;20.90;99.90;;;;;;4378368;28;658393;-65
2023/10/13 11:33:01;;;;;;;4.03;2.50;;;20.50;99.90;;;;;;4406201;28;658839;-65
2023/10/13 11:35:56;;;;;;;8.27;4.27;;;21.00;99.90;;;;;;4400958;28;656931;-65
2023/10/13 11:38:49;;;;;;;14.13;3.60;;;21.20;99.90;;;;;;4380983;28;656483;-65
2023/10/13 11:41:45;;;;;;;8.15;3.90;;;21.50;99.90;;;;;;4400739;28;657804;-65
2023/10/13 11:44:43;;;;;;;12.50;4.53;;;21.90;99.90;;;;;;4393376;28;656323;-65
2023/10/13 11:50:35;;;;;;;9.57;3.90;;;22.20;99.90;;;;;;4407574;28;656502;-65
2023/10/13 11:53:23;;;;;;;9.23;4.30;;;22.60;99.90;;;;;;4424338;28;656598;-65
2023/10/13 11:56:10;;;;;;;6.18;3.50;;;22.90;99.90;;;;;;4424385;28;657988;-65
2023/10/13 11:59:01;;;;;;;7.63;3.63;;;23.00;99.90;;;;;;4414260;28;657333;-65
2023/10/13 12:04:57;;;;;;;6.47;2.23;;;22.90;99.90;;;;;;4405824;28;656856;-64
2023/10/13 12:07:48;;;;;;;11.27;3.40;;;21.90;99.90;;;;;;4407391;28;657790;-64
2023/10/13 12:10:49;;;;;;;4.33;2.20;;;21.90;99.90;;;;;;4402325;28;658953;-64
2023/10/13 12:13:39;;;;;;;7.77;3.07;;;21.80;99.90;;;;;;4404900;28;656758;-65
2023/10/13 12:16:34;;;;;;;7.10;3.38;;;22.00;99.90;;;;;;4407566;28;657130;-64
2023/10/13 12:19:23;;;;;;;6.07;3.17;;;21.50;99.90;;;;;;4405780;28;656564;-65
2023/10/13 12:22:16;;;;;;;10.43;3.27;;;21.30;99.90;;;;;;4406110;28;657096;-64
2023/10/13 12:25:05;;;;;;;9.63;3.43;;;21.60;99.90;;;;;;4376604;28;659250;-65
2023/10/13 12:27:56;;;;;;;6.53;2.83;;;21.90;99.90;;;;;;4398860;28;657877;-64
2023/10/13 12:30:50;;;;;;;6.53;3.27;;;22.20;99.90;;;;;;4399675;28;656326;-65
2023/10/13 12:33:40;;;;;;;10.60;4.00;;;22.00;99.90;;;;;;4389660;28;656595;-65
2023/10/13 12:36:40;;;;;;;9.90;3.63;;;21.50;99.90;;;;;;4420135;28;658150;-65
2023/10/13 12:49:03;;;;;;;6.33;3.10;;;22.70;99.90;;;;;;4405449;28;657317;-64
2023/10/13 12:51:52;;;;;;;9.17;3.67;;;22.50;99.90;;;;;;4408486;28;657412;-64
2023/10/13 12:54:39;;;;;;;9.07;3.20;;;21.80;99.90;;;;;;4401891;28;658227;-64
2023/10/13 12:57:27;;;;;;;5.97;2.57;;;21.70;99.90;;;;;;4429042;28;657030;-63
2023/10/13 13:00:32;;;;;;;10.20;3.23;;;22.30;99.90;;;;;;4404713;28;656855;-63
2023/10/13 13:03:21;;;;;;;13.07;2.60;;;22.50;99.90;;;;;;4373687;28;658430;-64
2023/10/13 13:06:08;;;;;;;6.73;2.67;;;23.60;99.90;;;;;;4403607;28;658203;-64
2023/10/13 13:08:58;;;;;;;6.57;2.70;;;23.70;99.90;;;;;;4433202;28;657176;-63
2023/10/13 13:11:48;;;;;;;3.17;1.57;;;24.10;99.90;;;;;;4403653;28;657339;-64
2023/10/13 13:14:36;;;;;;;9.27;3.20;;;23.30;99.90;;;;;;4400666;28;657991;-64
2023/10/13 13:17:23;;;;;;;2.67;1.70;;;23.40;99.90;;;;;;4412013;28;656496;-64
2023/10/13 13:20:25;;;;;;;8.80;3.17;;;23.00;99.90;;;;;;4434622;28;656901;-64
2023/10/13 13:23:14;;;;;;;6.53;3.03;;;23.00;99.90;;;;;;4377670;28;657997;-64
2023/10/13 13:26:08;;;;;;;7.23;3.27;;;22.50;99.90;;;;;;4429344;28;657334;-64
2023/10/13 13:28:56;;;;;;;6.53;2.13;;;23.00;99.90;;;;;;4408951;28;657464;-64
2023/10/13 13:31:44;;;;;;;5.67;2.97;;;23.10;99.90;;;;;;4403802;28;657262;-64
2023/10/13 13:34:31;;;;;;;4.33;2.47;;;22.50;99.90;;;;;;4421509;28;656502;-64
2023/10/13 13:37:19;;;;;;;6.30;2.77;;;22.60;99.90;;;;;;4406318;28;656908;-64
2023/10/13 13:40:15;;;;;;;6.47;2.83;;;21.90;99.90;;;;;;4423437;28;656851;-63
2023/10/13 13:43:04;;;;;;;8.87;3.37;;;21.90;99.90;;;;;;4399582;28;656754;-64
2023/10/13 13:45:56;;;;;;;5.50;2.30;;;21.70;99.90;;;;;;4422575;28;657165;-64
2023/10/13 13:48:47;;;;;;;5.67;2.67;;;21.90;99.90;;;;;;4385896;28;656844;-63
2023/10/13 13:51:37;;;;;;;5.60;2.73;;;21.90;99.90;;;;;;4405133;28;657949;-64
2023/10/13 13:54:28;;;;;;;4.50;2.90;;;22.00;99.90;;;;;;4406770;28;656911;-63
2023/10/13 13:57:17;;;;;;;3.43;1.70;;;21.50;99.90;;;;;;4401314;28;657962;-63
2023/10/13 14:00:07;;;;;;;6.10;2.57;;;21.40;99.90;;;;;;4404730;28;658683;-64
2023/10/13 14:02:55;;;;;;;2.40;1.67;;;21.20;99.90;;;;;;4407707;28;657992;-63
2023/10/13 14:05:43;;;;;;;10.57;2.37;;;20.90;99.90;;;;;;4416646;28;656499;-64
2023/10/13 14:08:30;;;;;;;10.27;2.90;;;20.90;99.90;;;;;;4425873;28;659634;-63
2023/10/13 14:12:25;;;;;;;6.33;2.97;;;20.90;99.90;;;;;;4416077;28;658113;-64
2023/10/13 14:14:33;;;;;;;5.30;2.53;;;21.20;99.90;;;;;;4402084;28;657352;-63
2023/10/13 14:17:28;;;;;;;4.60;2.70;;;21.60;99.90;;;;;;4403873;28;656691;-63
2023/10/13 14:20:18;;;;;;;7.00;2.87;;;21.80;99.90;;;;;;4402361;28;657434;-64
2023/10/13 14:23:07;;;;;;;5.03;3.00;;;22.20;99.90;;;;;;4403171;28;657238;-64
2023/10/13 14:25:55;;;;;;;5.57;2.57;;;22.00;99.90;;;;;;4402258;28;658282;-63
2023/10/13 14:28:51;;;;;;;7.20;2.90;;;21.70;99.90;;;;;;4412161;28;656494;-64
2023/10/13 14:31:39;;;;;;;3.33;2.33;;;21.10;99.90;;;;;;4380086;28;656956;-63
2023/10/13 14:34:27;;;;;;;6.23;3.00;;;20.70;99.90;;;;;;4424312;28;657127;-63
2023/10/13 14:37:26;;;;;;;7.10;3.10;;;20.50;99.90;;;;;;4404330;28;657490;-64
2023/10/13 14:40:15;;;;;;;8.43;2.90;;;20.80;99.90;;;;;;4385319;28;656535;-63
2023/10/13 14:43:04;;;;;;;6.27;2.73;;;20.90;99.90;;;;;;4426304;28;656938;-64
2023/10/13 14:45:51;;;;;;;8.30;3.10;;;21.70;99.90;;;;;;4427981;28;657315;-63
2023/10/13 14:48:38;;;;;;;8.70;2.73;;;21.90;99.90;;;;;;4405988;28;656948;-64
2023/10/13 14:51:28;;;;;;;7.47;2.80;;;22.20;99.90;;;;;;4428802;28;657392;-63
2023/10/13 14:54:15;;;;;;;5.35;2.83;;;22.40;99.90;;;;;;4403076;28;657728;-63
2023/10/13 14:57:03;;;;;;;4.78;2.40;;;22.60;99.90;;;;;;4408602;28;656776;-64
2023/10/13 14:59:50;;;;;;;6.30;2.58;;;23.50;99.90;;;;;;4429092;28;657122;-63
2023/10/13 15:02:37;;;;;;;4.65;2.65;;;23.60;99.90;;;;;;4407982;28;657124;-64
2023/10/13 15:05:25;;;;;;;7.32;2.70;;;22.40;99.90;;;;;;4426993;28;656860;-64
2023/10/13 15:08:17;;;;;;;7.50;2.67;;;22.50;99.90;;;;;;4425635;28;656473;-64
2023/10/13 15:11:12;;;;;;;3.50;2.60;;;21.90;99.90;;;;;;4399988;28;657248;-63
2023/10/13 15:14:01;;;;;;;5.30;2.83;;;21.10;99.90;;;;;;4385227;28;657209;-64
2023/10/13 15:16:48;;;;;;;5.63;2.73;;;20.80;99.90;;;;;;4409246;28;656384;-64
2023/10/13 15:19:38;;;;;;;5.83;2.87;;;20.50;99.90;;;;;;4434356;28;657651;-63
2023/10/13 15:22:27;;;;;;;7.83;3.10;;;20.20;99.90;;;;;;4407708;28;657457;-64
2023/10/13 15:25:28;;;;;;;9.67;3.23;;;20.00;99.90;;;;;;4407559;28;656749;-64
2023/10/13 15:28:20;;;;;;;10.00;3.20;;;19.80;99.90;;;;;;4407478;28;656496;-63
2023/10/13 15:31:22;;;;;;;9.67;3.20;;;19.40;99.90;;;;;;4391319;28;658209;-63
2023/10/13 15:34:14;;;;;;;10.10;3.47;;;19.40;99.90;;;;;;4410314;28;656398;-64
2023/10/13 15:37:04;;;;;;;9.80;3.83;;;19.10;99.90;;;;;;4402446;28;657231;-64
2023/10/13 15:39:53;;;;;;;8.73;4.13;;;19.10;99.90;;;;;;4402328;28;656539;-64
2023/10/13 15:42:42;;;;;;;8.13;3.80;;;18.90;99.90;;;;;;4404235;28;657163;-63
2023/10/13 15:45:38;;;;;;;7.57;4.00;;;18.80;99.90;;;;;;4409070;28;657915;-64
2023/10/13 15:48:26;;;;;;;9.73;4.20;;;18.70;99.90;;;;;;4411946;28;657406;-64
2023/10/13 15:51:13;;;;;;;10.70;4.27;;;18.70;99.90;;;;;;4412201;28;656843;-64
2023/10/13 15:54:00;;;;;;;11.57;3.97;;;18.70;99.90;;;;;;4431261;28;658273;-63
2023/10/13 15:56:48;;;;;;;8.17;3.57;;;18.60;99.90;;;;;;4409855;28;657561;-64
2023/10/13 15:59:37;;;;;;;9.70;3.90;;;18.50;99.90;;;;;;4434231;28;656826;-63
2023/10/13 16:02:25;;;;;;;12.00;4.33;;;18.40;99.90;;;;;;4412205;28;657877;-63
2023/10/13 16:05:12;;;;;;;15.20;3.80;;;18.20;99.90;;;;;;4435050;28;657993;-64
2023/10/13 16:08:00;;;;;;;9.77;3.80;;;18.10;99.90;;;;;;4392249;28;658395;-64
2023/10/13 16:10:49;;;;;;;9.73;3.80;;;18.00;99.90;;;;;;4400751;28;656518;-64
2023/10/13 16:13:37;;;;;;;6.60;3.80;;;17.80;99.90;;;;;;4420302;28;656048;-64
2023/10/13 16:16:26;;;;;;;5.47;3.43;;;17.60;99.90;;;;;;4396915;28;657571;-64
2023/10/13 16:19:17;;;;;;;12.50;3.90;;;17.40;99.90;;;;;;4391838;28;656977;-64
2023/10/13 16:22:04;;;;;;;9.07;4.17;;;17.30;99.90;;;;;;4391922;28;657390;-64
2023/10/13 16:24:52;;;;;;;9.27;4.20;;;17.20;99.90;;;;;;4414498;28;656781;-64
2023/10/13 16:27:41;;;;;;;6.53;4.10;;;17.10;99.90;;;;;;4394509;28;656424;-64
2023/10/13 16:30:29;;;;;;;7.13;3.97;;;16.90;99.90;;;;;;4391804;28;656638;-64